Time;durP1;ratioP1;P1;durP2;ratioP2;P2;SDS_P1;SDS_P2;PMS_P1;PMS_P2;Temp;Humidity;BMP_temperature;BMP_pressure;BME280_temperature;BME280_humidity;BME280_pressure;Samples;Min_cycle;Max_cycle;Signal;HPM_P1;HPM_P2
2021/10/09 00:00:53;;;;;;;19.25;9.88;;;;;;;8.24;100.00;102265.72;5246518;28;20056;-80
2021/10/09 00:03:23;;;;;;;18.58;10.02;;;;;;;8.13;100.00;102268.28;5236476;28;20021;-80
2021/10/09 00:05:54;;;;;;;20.17;10.18;;;;;;;8.05;100.00;102264.75;5247447;28;20452;-80
2021/10/09 00:08:24;;;;;;;15.45;9.75;;;;;;;7.98;100.00;102270.84;5238883;28;20039;-80
2021/10/09 00:10:54;;;;;;;18.65;9.77;;;;;;;7.93;100.00;102269.97;5239089;28;20028;-80
2021/10/09 00:13:25;;;;;;;17.90;10.35;;;;;;;7.98;100.00;102277.78;5238789;28;20039;-80
2021/10/09 00:15:55;;;;;;;17.85;9.60;;;;;;;7.80;100.00;102270.81;5238308;28;20101;-80
2021/10/09 00:18:25;;;;;;;20.65;10.20;;;;;;;7.85;100.00;102273.41;5238357;28;20036;-80
2021/10/09 00:20:55;;;;;;;16.90;9.43;;;;;;;7.78;100.00;102269.03;5238607;28;20467;-80
2021/10/09 00:23:26;;;;;;;22.15;10.82;;;;;;;7.86;100.00;102277.75;5238273;28;20055;-80
2021/10/09 00:25:57;;;;;;;20.98;10.32;;;;;;;7.68;100.00;102283.75;5254778;28;20075;-80
2021/10/09 00:28:27;;;;;;;16.23;9.20;;;;;;;7.72;100.00;102290.72;5238394;28;20024;-80
2021/10/09 00:30:57;;;;;;;15.68;9.65;;;;;;;7.72;100.00;102277.69;5248221;28;20538;-80
2021/10/09 00:33:28;;;;;;;22.05;10.20;;;;;;;7.85;100.00;102284.69;5265162;22;20043;-79
2021/10/09 00:35:58;;;;;;;18.05;10.95;;;;;;;7.82;100.00;102283.81;5246080;28;20313;-79
2021/10/09 00:38:28;;;;;;;19.77;10.70;;;;;;;7.84;100.00;102280.34;5243328;28;20487;-79
2021/10/09 00:40:58;;;;;;;17.35;10.23;;;;;;;7.72;100.00;102279.44;5242830;28;20043;-79
2021/10/09 00:43:29;;;;;;;19.65;9.90;;;;;;;7.63;100.00;102275.09;5242318;28;20387;-79
2021/10/09 00:45:59;;;;;;;22.13;10.57;;;;;;;7.65;100.00;102273.34;5242499;28;20033;-79
2021/10/09 00:48:33;;;;;;;20.10;11.60;;;;;;;7.61;100.00;102276.81;5241320;28;20032;-79
2021/10/09 00:51:04;;;;;;;18.45;9.95;;;;;;;7.55;100.00;102276.78;5238239;28;20354;-80
2021/10/09 00:53:38;;;;;;;18.00;10.63;;;;;;;7.55;100.00;102275.91;5241197;28;20107;-80
2021/10/09 00:56:10;;;;;;;18.05;10.38;;;;;;;7.58;100.00;102276.81;5239039;28;20016;-80
2021/10/09 00:58:44;;;;;;;16.45;9.57;;;;;;;7.45;100.00;102272.41;5236693;28;20033;-79
2021/10/09 01:01:18;;;;;;;17.50;9.77;;;;;;;7.46;100.00;102260.25;5237773;28;20117;-80
2021/10/09 01:03:49;;;;;;;17.00;9.77;;;;;;;7.49;100.00;102266.34;5245271;28;20028;-79
2021/10/09 01:06:19;;;;;;;16.40;9.57;;;;;;;7.44;100.00;102262.88;5247887;28;20036;-79
2021/10/09 01:08:49;;;;;;;17.17;9.18;;;;;;;7.35;100.00;102270.63;5244468;28;20025;-80
2021/10/09 01:11:20;;;;;;;18.15;9.57;;;;;;;7.42;100.00;102274.13;5244811;28;20025;-80
2021/10/09 01:13:50;;;;;;;16.02;9.63;;;;;;;7.37;100.00;102262.84;5243842;28;20313;-79
2021/10/09 01:16:23;;;;;;;17.75;9.73;;;;;;;7.40;100.00;102268.94;5244679;28;20279;-79
2021/10/09 01:18:55;;;;;;;15.73;9.32;;;;;;;7.61;100.00;102261.19;5244744;28;20393;-79
2021/10/09 01:21:25;;;;;;;16.02;9.48;;;;;;;7.53;100.00;102257.69;5244942;28;20048;-79
2021/10/09 01:23:56;;;;;;;15.13;8.70;;;;;;;7.49;100.00;102257.69;5243814;28;20113;-79
2021/10/09 01:26:26;;;;;;;18.40;9.60;;;;;;;7.48;100.00;102264.63;5244979;28;20510;-79
2021/10/09 01:28:56;;;;;;;18.83;9.27;;;;;;;7.39;100.00;102261.09;5249956;28;20032;-80
2021/10/09 01:31:26;;;;;;;21.38;9.75;;;;;;;7.42;100.00;102259.41;5226770;28;20026;-79
2021/10/09 01:33:57;;;;;;;14.85;9.18;;;;;;;7.34;100.00;102255.88;5246187;28;20040;-79
2021/10/09 01:36:29;;;;;;;15.75;9.20;;;;;;;7.32;100.00;102249.81;5248923;28;20537;-79
2021/10/09 01:39:00;;;;;;;15.73;8.90;;;;;;;7.33;100.00;102254.16;5244461;28;20024;-79
2021/10/09 01:41:40;;;;;;;17.83;9.88;;;;;;;7.31;100.00;102258.47;5244879;28;20020;-79
2021/10/09 01:44:10;;;;;;;21.20;9.27;;;;;;;7.33;100.00;102258.50;5244489;28;20029;-79
2021/10/09 01:46:42;;;;;;;21.90;9.90;;;;;;;7.41;100.00;102246.38;5243899;28;20510;-79
2021/10/09 01:49:12;;;;;;;17.50;9.60;;;;;;;7.33;100.00;102248.94;5240367;28;20212;-79
2021/10/09 01:51:43;;;;;;;18.13;9.55;;;;;;;7.27;100.00;102247.19;5243935;28;20099;-79
2021/10/09 01:54:13;;;;;;;21.92;9.77;;;;;;;7.16;100.00;102246.25;5244025;28;20075;-80
2021/10/09 01:56:43;;;;;;;17.17;9.98;;;;;;;7.26;100.00;102248.06;5246186;28;20061;-79
2021/10/09 01:59:14;;;;;;;17.95;9.13;;;;;;;7.44;100.00;102243.78;5248594;28;20107;-79
2021/10/09 02:01:44;;;;;;;14.95;8.82;;;;;;;7.53;100.00;102252.50;5243793;28;20399;-79
2021/10/09 02:04:14;;;;;;;15.20;8.82;;;;;;;7.72;100.00;102251.69;5246091;28;20083;-79
2021/10/09 02:06:44;;;;;;;17.05;8.85;;;;;;;7.64;100.00;102249.91;5229869;28;20055;-79
2021/10/09 02:09:17;;;;;;;22.42;10.07;;;;;;;7.73;100.00;102255.16;5243480;28;20027;-79
2021/10/09 02:11:49;;;;;;;16.92;9.32;;;;;;;7.67;100.00;102249.94;5243944;28;20534;-79
2021/10/09 02:14:40;;;;;;;17.92;10.15;;;;;;;7.52;100.00;102255.94;5242753;28;20028;-78
2021/10/09 02:17:29;;;;;;;21.67;10.80;;;;;;;7.43;100.00;102253.34;5244082;28;20510;-79
2021/10/09 02:25:46;;;;;;;18.90;9.45;;;;;;;6.91;100.00;102249.59;5243058;28;20183;-79
2021/10/09 02:28:24;;;;;;;17.45;9.73;;;;;;;7.28;100.00;102248.94;5244019;28;20445;-79
2021/10/09 02:30:54;;;;;;;19.30;9.68;;;;;;;7.43;100.00;102249.84;5240999;28;20032;-79
2021/10/09 02:33:25;;;;;;;18.27;9.65;;;;;;;7.32;100.00;102241.16;5244347;28;20410;-79
2021/10/09 02:35:55;;;;;;;16.55;9.75;;;;;;;7.14;100.00;102237.59;5249035;28;20542;-78
2021/10/09 02:38:25;;;;;;;21.27;9.57;;;;;;;7.05;100.00;102234.94;5243429;28;20016;-79
2021/10/09 02:40:55;;;;;;;18.27;10.00;;;;;;;6.98;100.00;102238.38;5242851;28;20028;-78
2021/10/09 02:43:26;;;;;;;17.67;9.85;;;;;;;6.87;100.00;102235.72;5242249;28;20032;-79
2021/10/09 02:45:56;;;;;;;16.40;9.93;;;;;;;6.91;100.00;102236.59;5242921;28;20042;-79
2021/10/09 02:48:26;;;;;;;15.48;9.15;;;;;;;6.85;100.00;102233.94;5243034;28;20028;-79
2021/10/09 02:50:57;;;;;;;16.75;8.98;;;;;;;6.90;100.00;102240.06;5243355;28;20111;-79
2021/10/09 02:53:27;;;;;;;16.50;9.57;;;;;;;6.82;100.00;102237.41;5242815;28;20501;-79
2021/10/09 02:55:57;;;;;;;17.65;8.68;;;;;;;6.83;100.00;102236.56;5243050;28;20711;-79
2021/10/09 02:58:28;;;;;;;20.23;9.88;;;;;;;6.81;100.00;102232.19;5229132;28;20430;-79
2021/10/09 03:00:58;;;;;;;17.88;9.88;;;;;;;6.81;100.00;102238.28;5248912;28;20032;-79
2021/10/09 03:03:28;;;;;;;14.55;9.50;;;;;;;6.87;100.00;102235.72;5244171;28;20032;-79
2021/10/09 03:05:59;;;;;;;20.30;9.45;;;;;;;6.70;100.00;102226.06;5247503;28;20395;-80
2021/10/09 03:08:29;;;;;;;18.33;9.00;;;;;;;6.55;100.00;102236.34;5242529;28;20475;-79
2021/10/09 03:10:59;;;;;;;18.85;8.95;;;;;;;6.47;100.00;102228.53;5242819;28;20032;-79
2021/10/09 03:13:29;;;;;;;16.38;8.98;;;;;;;6.52;100.00;102225.94;5242979;28;20078;-79
2021/10/09 03:16:00;;;;;;;16.63;9.18;;;;;;;6.63;100.00;102227.75;5242052;28;20408;-79
2021/10/09 03:18:30;;;;;;;15.05;8.98;;;;;;;6.58;100.00;102236.38;5242800;28;20024;-79
2021/10/09 03:21:00;;;;;;;19.55;9.38;;;;;;;6.53;100.00;102236.34;5242344;28;20036;-79
2021/10/09 03:23:31;;;;;;;15.10;8.68;;;;;;;6.44;100.00;102233.66;5241966;28;20027;-79
2021/10/09 03:26:04;;;;;;;13.85;8.50;;;;;;;6.49;100.00;102236.31;5242388;28;20092;-79
2021/10/09 03:28:34;;;;;;;22.67;8.57;;;;;;;6.91;100.00;102234.88;5229409;28;20495;-79
2021/10/09 03:31:04;;;;;;;19.88;10.18;;;;;;;6.90;100.00;102247.88;5243293;28;20071;-79
2021/10/09 03:33:34;;;;;;;15.18;8.75;;;;;;;6.55;100.00;102244.13;5243840;28;20089;-79
2021/10/09 03:36:05;;;;;;;21.75;10.60;;;;;;;6.84;100.00;102240.91;5246151;28;20423;-79
2021/10/09 03:38:37;;;;;;;21.83;9.85;;;;;;;6.97;100.00;102242.69;5242575;28;20380;-79
2021/10/09 03:41:10;;;;;;;22.50;9.18;;;;;;;6.85;100.00;102245.22;5242474;28;20070;-79
2021/10/09 03:43:42;;;;;;;19.85;8.68;;;;;;;6.63;100.00;102234.69;5241943;28;20048;-80
2021/10/09 03:46:18;;;;;;;17.15;9.27;;;;;;;6.59;100.00;102238.13;5224211;28;20024;-79
2021/10/09 03:48:56;;;;;;;16.55;8.50;;;;;;;6.54;100.00;102245.00;5241962;28;20020;-79
2021/10/09 03:54:16;;;;;;;15.35;8.63;;;;;;;6.33;100.00;102247.44;5238541;28;20047;-79
2021/10/09 03:56:47;;;;;;;14.80;8.38;;;;;;;6.11;100.00;102242.91;5244333;28;20116;-79
2021/10/09 03:59:17;;;;;;;21.58;9.18;;;;;;;6.06;100.00;102242.00;5247278;28;20108;-79
2021/10/09 04:01:47;;;;;;;17.08;8.95;;;;;;;6.22;100.00;102249.09;5242522;28;20031;-79
2021/10/09 04:04:17;;;;;;;16.25;8.43;;;;;;;6.27;100.00;102248.25;5244628;28;20029;-79
2021/10/09 04:06:48;;;;;;;14.85;8.32;;;;;;;6.17;100.00;102250.75;5228870;28;20341;-79
2021/10/09 04:09:18;;;;;;;15.82;8.70;;;;;;;6.18;100.00;102249.88;5241057;28;20598;-79
2021/10/09 04:11:48;;;;;;;14.57;7.93;;;;;;;6.07;100.00;102254.13;5223360;28;20388;-79
2021/10/09 04:14:18;;;;;;;13.50;7.88;;;;;;;6.00;100.00;102248.00;5241256;28;20500;-79
2021/10/09 04:16:49;;;;;;;13.13;7.47;;;;;;;6.06;100.00;102250.66;5241812;28;20074;-79
2021/10/09 04:19:19;;;;;;;14.30;7.85;;;;;;;5.82;100.00;102250.41;5241303;28;20032;-79
2021/10/09 04:21:49;;;;;;;16.55;7.50;;;;;;;6.04;100.00;102251.47;5241476;28;20024;-80
2021/10/09 04:24:20;;;;;;;12.82;6.72;;;;;;;5.88;100.00;102249.63;5241926;28;20066;-79
2021/10/09 04:26:50;;;;;;;14.05;7.45;;;;;;;5.62;100.00;102256.19;5243900;28;20024;-80
2021/10/09 04:29:21;;;;;;;12.52;7.38;;;;;;;5.46;100.00;102252.59;5245967;28;20119;-79
2021/10/09 04:31:51;;;;;;;15.73;7.50;;;;;;;5.27;100.00;102254.03;5241214;28;20107;-79
2021/10/09 04:34:22;;;;;;;14.52;7.68;;;;;;;5.25;100.00;102247.97;5243661;28;20029;-79
2021/10/09 04:36:55;;;;;;;14.98;7.97;;;;;;;5.38;100.00;102253.34;5246678;28;20043;-79
2021/10/09 04:39:25;;;;;;;14.63;7.85;;;;;;;5.61;100.00;102249.28;5246915;28;20335;-79
2021/10/09 04:41:55;;;;;;;11.20;7.15;;;;;;;5.63;100.00;102252.75;5246266;28;20112;-80
2021/10/09 04:44:26;;;;;;;15.05;7.35;;;;;;;5.62;100.00;102256.19;5246090;28;20028;-80
2021/10/09 04:46:56;;;;;;;13.32;6.55;;;;;;;4.91;100.00;102251.84;5246507;28;20508;-80
2021/10/09 04:49:26;;;;;;;10.52;6.35;;;;;;;5.11;100.00;102265.06;5246663;28;20028;-80
2021/10/09 04:51:56;;;;;;;10.25;5.97;;;;;;;4.84;100.00;102255.16;5246297;28;20101;-80
2021/10/09 04:54:27;;;;;;;12.20;6.63;;;;;;;4.65;100.00;102255.75;5246056;28;20425;-79
2021/10/09 04:56:57;;;;;;;12.13;6.40;;;;;;;4.75;100.00;102254.16;5248164;28;20123;-78
2021/10/09 04:59:27;;;;;;;12.18;6.68;;;;;;;4.75;100.00;102255.06;5250417;28;20475;-79
2021/10/09 05:01:57;;;;;;;11.02;5.90;;;;;;;4.99;100.00;102257.97;5245580;28;20530;-79
2021/10/09 05:04:28;;;;;;;10.52;6.20;;;;;;;4.87;100.00;102257.84;5248687;28;20024;-79
2021/10/09 05:06:58;;;;;;;12.18;5.72;;;;;;;4.85;100.00;102249.19;5248597;28;20074;-79
2021/10/09 05:09:28;;;;;;;10.25;5.93;;;;;;;4.49;100.00;102260.69;5245837;28;20021;-79
2021/10/09 05:11:59;;;;;;;8.20;5.05;;;;;;;4.69;100.00;102249.78;5245632;28;20081;-80
2021/10/09 05:14:29;;;;;;;8.68;5.20;;;;;;;4.95;100.00;102252.75;5245423;28;20701;-80
2021/10/09 05:16:59;;;;;;;11.77;5.55;;;;;;;5.02;100.00;102255.47;5226940;28;20122;-79
2021/10/09 05:19:29;;;;;;;11.02;5.97;;;;;;;4.93;98.19;102257.03;5246239;28;20452;-79
2021/10/09 05:22:00;;;;;;;8.85;5.28;;;;;;;4.70;99.52;102267.06;5244608;28;20260;-79
2021/10/09 05:24:30;;;;;;;13.93;5.78;;;;;;;4.87;98.18;102264.72;5244923;28;20502;-79
2021/10/09 05:27:00;;;;;;;9.02;5.63;;;;;;;4.61;100.00;102261.75;5247823;28;20028;-79
2021/10/09 05:29:31;;;;;;;11.55;6.15;;;;;;;4.76;100.00;102271.44;5231612;28;20484;-78
2021/10/09 05:32:06;;;;;;;9.90;5.68;;;;;;;4.52;100.00;102271.97;5244557;28;20936;-80
2021/10/09 05:34:37;;;;;;;10.13;6.30;;;;;;;4.66;100.00;102283.38;5248926;28;20435;-80
2021/10/09 05:37:07;;;;;;;11.20;6.18;;;;;;;4.60;100.00;102285.03;5247632;28;20047;-79
2021/10/09 05:39:37;;;;;;;9.50;5.55;;;;;;;4.83;100.00;102283.66;5244806;28;20040;-79
2021/10/09 05:42:08;;;;;;;7.18;5.10;;;;;;;4.49;100.00;102290.00;5244543;28;20060;-79
2021/10/09 05:44:38;;;;;;;12.02;5.40;;;;;;;4.68;100.00;102294.66;5244020;28;20074;-79
2021/10/09 05:47:08;;;;;;;10.20;5.80;;;;;;;4.73;100.00;102298.19;5244484;28;20063;-79
2021/10/09 05:49:39;;;;;;;11.77;5.00;;;;;;;4.87;100.00;102294.09;5243104;28;20058;-79
2021/10/09 05:52:23;;;;;;;8.88;5.25;;;;;;;4.91;99.10;102295.88;5244389;28;20067;-79
2021/10/09 05:55:09;;;;;;;10.23;5.32;;;;;;;4.65;100.00;102302.34;5241957;28;20470;-80
2021/10/09 05:57:55;;;;;;;8.98;5.32;;;;;;;4.77;100.00;102296.53;5248664;28;20271;-79
2021/10/09 06:00:51;;;;;;;9.38;5.57;;;;;;;4.93;100.00;102301.94;5224881;28;20119;-79
2021/10/09 06:31:45;;;;;;;15.25;6.72;;;;;;;5.12;100.00;102319.50;5239664;28;20031;-79
2021/10/09 07:01:33;;;;;;;15.40;8.40;;;;;;;6.57;100.00;102325.56;5244662;28;20087;-80
2021/10/09 07:04:03;;;;;;;17.42;8.95;;;;;;;6.65;100.00;102326.47;5245154;28;20024;-79
2021/10/09 07:06:33;;;;;;;16.42;8.80;;;;;;;6.74;100.00;102323.97;5238896;28;20028;-79
2021/10/09 07:09:03;;;;;;;15.70;8.65;;;;;;;6.93;100.00;102321.50;5237070;28;20222;-79
2021/10/09 07:11:34;;;;;;;20.77;8.25;;;;;;;7.05;100.00;102328.50;5240140;28;20032;-79
2021/10/09 07:14:06;;;;;;;13.02;8.15;;;;;;;7.20;100.00;102333.81;5239317;28;20116;-79
2021/10/09 07:16:36;;;;;;;19.73;8.57;;;;;;;7.07;100.00;102334.63;5237245;28;20039;-79
2021/10/09 07:19:06;;;;;;;17.02;8.13;;;;;;;7.32;100.00;102330.44;5232730;28;20615;-79
2021/10/09 07:21:37;;;;;;;22.13;8.27;;;;;;;7.35;100.00;102340.84;5241750;28;20027;-79
2021/10/09 07:24:07;;;;;;;19.63;8.88;;;;;;;8.10;100.00;102335.09;5240553;28;20032;-79
2021/10/09 07:26:37;;;;;;;14.13;7.28;;;;;;;9.30;99.08;102328.19;5244808;28;20119;-79
2021/10/09 07:29:08;;;;;;;13.88;7.05;;;;;;;11.08;89.66;102327.13;5246232;28;20024;-79
2021/10/09 07:31:38;;;;;;;16.58;8.32;;;;;;;12.65;78.84;102327.69;5242413;28;20544;-79
2021/10/09 07:34:09;;;;;;;12.27;7.05;;;;;;;13.04;76.35;102321.84;5243790;28;20020;-79
2021/10/09 07:36:39;;;;;;;13.07;7.35;;;;;;;13.51;74.04;102327.03;5247201;28;20036;-80
2021/10/09 07:39:09;;;;;;;13.45;7.25;;;;;;;14.57;72.80;102321.25;5243017;28;20036;-80
2021/10/09 07:41:41;;;;;;;11.57;6.82;;;;;;;15.26;69.35;102320.28;5243722;28;20089;-80
2021/10/09 07:44:11;;;;;;;13.07;7.20;;;;;;;14.66;72.89;102319.25;5242568;28;20112;-80
2021/10/09 07:46:41;;;;;;;13.30;7.60;;;;;;;13.42;75.41;102328.09;5225754;28;20036;-80
2021/10/09 07:49:11;;;;;;;13.83;7.27;;;;;;;14.11;72.22;102328.41;5241902;28;20623;-80
2021/10/09 07:51:42;;;;;;;10.77;6.23;;;;;;;15.70;71.69;102314.69;5238660;28;20286;-80
2021/10/09 07:54:13;;;;;;;12.85;6.72;;;;;;;16.46;64.84;102322.91;5242284;28;20289;-80
2021/10/09 07:56:43;;;;;;;11.95;7.25;;;;;;;16.52;67.34;102320.06;5245765;28;20080;-80
2021/10/09 07:59:13;;;;;;;13.88;6.97;;;;;;;16.80;63.03;102315.63;5247030;28;20097;-80
2021/10/09 08:01:44;;;;;;;15.07;6.80;;;;;;;18.88;59.73;102311.16;5243330;28;20044;-80
2021/10/09 08:04:16;;;;;;;12.68;6.85;;;;;;;18.40;60.88;102317.63;5221976;28;20293;-80
2021/10/09 08:06:46;;;;;;;13.40;7.55;;;;;;;17.36;63.34;102322.47;5247100;28;20037;-80
2021/10/09 08:09:17;;;;;;;16.48;7.97;;;;;;;17.64;63.94;102323.22;5244593;28;20082;-80
2021/10/09 08:11:47;;;;;;;15.30;8.15;;;;;;;17.71;62.08;102322.06;5227379;28;20070;-79
2021/10/09 08:14:17;;;;;;;16.13;8.02;;;;;;;16.92;64.07;102326.63;5247356;28;20036;-79
2021/10/09 08:16:48;;;;;;;12.30;8.25;;;;;;;17.56;63.50;102325.28;5247968;28;20814;-80
2021/10/09 08:19:18;;;;;;;15.90;8.75;;;;;;;16.91;64.21;102324.91;5243299;28;20017;-80
2021/10/09 08:21:50;;;;;;;15.82;8.40;;;;;;;15.58;69.67;102337.00;5247738;28;20067;-79
2021/10/09 08:24:35;;;;;;;16.67;8.57;;;;;;;16.18;67.65;102331.72;5246378;28;20123;-80
2021/10/09 08:41:09;;;;;;;18.33;8.52;;;;;;;16.84;66.01;102335.72;5177729;28;20528;-77
2021/10/09 08:43:46;;;;;;;15.95;9.10;;;;;;;16.65;67.97;102345.16;5161435;28;20117;-77
2021/10/09 08:46:18;;;;;;;14.68;8.68;;;;;;;16.92;66.07;102333.69;5211883;28;20040;-77
2021/10/09 08:48:51;;;;;;;16.50;8.82;;;;;;;16.91;65.33;102340.75;5241438;28;20047;-77
2021/10/09 08:51:26;;;;;;;14.02;8.85;;;;;;;16.75;67.24;102343.94;5239532;28;20924;-77
2021/10/09 08:54:05;;;;;;;18.33;8.98;;;;;;;16.31;68.37;102344.47;5242086;28;20496;-77
2021/10/09 08:56:41;;;;;;;16.17;8.93;;;;;;;13.83;74.39;102357.06;5244875;28;20490;-77
2021/10/09 08:59:26;;;;;;;;;;;;;;;13.40;78.13;102357.94;5246429;28;20036;-77
2021/10/09 09:02:23;;;;;;;16.63;8.88;;;;;;;13.16;80.04;102368.84;5239955;28;20023;-77
2021/10/09 09:34:03;;;;;;;17.92;10.20;;;;;;;13.40;83.42;102342.16;5238308;28;20116;-77
2021/10/09 09:37:02;;;;;;;14.68;8.75;;;;;;;13.40;81.87;102337.75;5240242;28;20614;-77
2021/10/09 09:39:08;;;;;;;15.70;9.05;;;;;;;13.33;84.02;102340.53;5231741;28;20044;-77
2021/10/09 09:41:48;;;;;;;15.13;9.25;;;;;;;13.66;79.90;102332.00;5240682;28;20383;-77
2021/10/09 09:44:19;;;;;;;14.85;8.80;;;;;;;13.51;79.24;102334.94;5238375;28;20045;-77
2021/10/09 09:47:07;;;;;;;15.15;8.63;;;;;;;13.69;80.78;102335.44;5240967;28;20029;-77
2021/10/09 09:49:38;;;;;;;19.25;9.32;;;;;;;13.72;80.30;102329.28;5237186;28;20098;-77
2021/10/09 09:52:08;;;;;;;16.63;9.07;;;;;;;13.67;80.63;102312.69;5241591;28;20028;-77
2021/10/09 09:54:41;;;;;;;14.80;8.68;;;;;;;13.73;79.40;102325.75;5240139;28;20040;-76
2021/10/09 09:57:12;;;;;;;17.33;9.63;;;;;;;13.77;79.11;102316.88;5244014;28;20039;-77
2021/10/09 09:59:45;;;;;;;15.77;8.80;;;;;;;13.94;79.12;102322.66;5243206;28;20043;-77
2021/10/09 10:02:20;;;;;;;19.40;9.02;;;;;;;13.64;76.52;102320.66;5241427;28;20024;-77
2021/10/09 10:04:51;;;;;;;18.52;8.88;;;;;;;13.78;78.50;102308.09;5243004;28;20648;-77
2021/10/09 10:07:21;;;;;;;18.52;9.00;;;;;;;13.74;76.24;102309.06;5242881;28;20040;-77
2021/10/09 10:09:52;;;;;;;19.92;8.20;;;;;;;13.72;75.64;102305.63;5240267;28;20040;-76
2021/10/09 10:12:24;;;;;;;16.65;8.65;;;;;;;13.81;75.62;102302.78;5241533;28;20044;-76
2021/10/09 10:14:54;;;;;;;15.68;7.95;;;;;;;13.52;74.85;102306.00;5239869;28;20529;-76
2021/10/09 10:17:45;;;;;;;14.13;7.82;;;;;;;13.50;75.18;102301.66;5241505;28;20040;-76
2021/10/09 10:20:21;;;;;;;15.77;7.93;;;;;;;13.93;75.72;102297.28;5236704;28;20036;-76
2021/10/09 10:22:51;;;;;;;12.40;7.10;;;;;;;13.93;74.24;102297.28;5236838;28;20099;-77
2021/10/09 10:25:25;;;;;;;11.77;7.05;;;;;;;13.95;72.58;102290.22;5240915;28;20064;-77
2021/10/09 10:28:14;;;;;;;11.75;5.05;;;;;;;14.11;69.30;102286.34;5225843;28;20127;-77
2021/10/09 10:30:45;;;;;;;12.60;6.10;;;;;;;14.24;72.24;102285.19;5240851;28;20133;-77
2021/10/09 10:33:18;;;;;;;9.30;4.35;;;;;;;14.23;67.28;102279.06;5230831;28;20031;-76
2021/10/09 10:35:49;;;;;;;12.52;4.57;;;;;;;14.10;66.96;102284.63;5245376;28;20047;-77
2021/10/09 10:38:21;;;;;;;7.55;3.83;;;;;;;13.91;66.10;102293.81;5236347;28;20024;-76
2021/10/09 10:40:58;;;;;;;8.25;4.82;;;;;;;14.09;64.35;102277.63;5238938;28;20041;-76
2021/10/09 10:56:55;;;;;;;6.78;3.08;;;;;;;14.18;61.02;102273.06;5239701;28;20064;-76
2021/10/09 10:59:34;;;;;;;6.80;3.53;;;;;;;14.03;60.76;102276.00;5244010;28;20105;-76
2021/10/09 11:02:08;;;;;;;9.02;3.85;;;;;;;13.97;60.09;102277.88;5240319;28;20294;-76
2021/10/09 11:04:45;;;;;;;7.57;3.83;;;;;;;14.02;60.49;102270.75;5243311;28;20020;-76
2021/10/09 11:07:17;;;;;;;9.18;3.88;;;;;;;14.03;62.22;102278.63;5234122;28;20047;-76
2021/10/09 11:09:49;;;;;;;10.75;3.92;;;;;;;14.03;61.73;102280.38;5239776;28;20033;-77
2021/10/09 11:12:26;;;;;;;8.38;3.97;;;;;;;13.92;61.60;102280.63;5239716;28;20043;-77
2021/10/09 11:15:18;;;;;;;10.15;4.20;;;;;;;14.17;63.80;102276.59;5238874;28;20028;-77
2021/10/09 11:17:57;;;;;;;9.80;3.58;;;;;;;14.00;63.13;102278.69;5236119;28;20115;-77
2021/10/09 11:20:42;;;;;;;7.53;3.90;;;;;;;13.99;63.46;102282.22;5240331;28;20602;-77
2021/10/09 11:23:15;;;;;;;7.72;3.72;;;;;;;14.01;62.62;102277.78;5235160;28;20043;-77
2021/10/09 11:25:45;;;;;;;7.95;3.50;;;;;;;14.03;63.05;102278.63;5240037;28;20025;-77
2021/10/09 11:28:25;;;;;;;7.75;3.50;;;;;;;14.16;64.02;102284.50;5243369;28;20051;-77
2021/10/09 11:30:55;;;;;;;7.00;3.38;;;;;;;14.05;63.95;102284.72;5236103;28;20032;-77
2021/10/09 11:33:27;;;;;;;8.32;4.13;;;;;;;14.18;64.94;102283.56;5240918;28;20039;-77
2021/10/09 11:36:02;;;;;;;10.73;4.03;;;;;;;14.12;64.39;102278.41;5244034;28;20040;-77
2021/10/09 11:38:33;;;;;;;15.35;3.63;;;;;;;14.27;65.51;102285.13;5220792;28;20075;-77
2021/10/09 11:41:13;;;;;;;7.95;3.40;;;;;;;14.25;62.75;102279.03;5239690;28;20032;-77
2021/10/09 11:43:48;;;;;;;8.32;3.50;;;;;;;14.16;63.20;102274.84;5234980;28;20077;-77
2021/10/09 11:55:18;;;;;;;8.13;3.75;;;;;;;14.28;62.58;102278.97;5238280;28;20016;-77
2021/10/09 11:57:50;;;;;;;7.72;3.53;;;;;;;14.19;63.30;102274.78;5240600;28;20028;-77
2021/10/09 12:00:29;;;;;;;6.28;3.42;;;;;;;14.14;62.12;102276.63;5242990;28;20016;-77
2021/10/09 12:03:01;;;;;;;9.65;3.90;;;;;;;14.17;63.09;102270.44;5238854;28;20073;-77
2021/10/09 12:05:58;;;;;;;7.82;3.38;;;;;;;14.29;63.97;102270.16;5242279;28;20029;-77
2021/10/09 12:08:28;;;;;;;7.10;3.47;;;;;;;14.16;61.51;102268.72;5232546;28;20074;-77
2021/10/09 12:11:12;;;;;;;8.23;3.47;;;;;;;14.24;62.94;102262.38;5238470;28;20036;-77
2021/10/09 12:13:59;;;;;;;7.85;3.13;;;;;;;14.43;62.26;102257.56;5234105;28;20063;-77
2021/10/09 12:16:34;;;;;;;6.20;3.28;;;;;;;14.45;62.03;102245.22;5239291;28;20025;-77
2021/10/09 12:19:13;;;;;;;8.13;3.65;;;;;;;14.50;61.79;102251.22;5220968;28;20496;-77
2021/10/09 12:21:49;;;;;;;7.63;3.08;;;;;;;14.51;62.43;102247.69;5231151;28;20151;-77
2021/10/09 12:24:25;;;;;;;7.30;3.30;;;;;;;14.41;59.28;102254.09;5239200;28;20038;-77
2021/10/09 12:27:07;;;;;;;8.70;2.97;;;;;;;14.59;60.36;102243.13;5239968;28;20035;-77
2021/10/09 12:30:04;;;;;;;5.47;3.10;;;;;;;14.59;60.07;102243.13;5225082;28;20048;-77
2021/10/09 12:32:40;;;;;;;;;;;;;;;14.57;58.77;102244.94;5235483;28;20023;-80
2021/10/09 12:35:13;;;;;;;7.65;3.10;;;;;;;14.62;61.37;102237.75;5221488;28;19912;-78
2021/10/09 12:38:04;;;;;;;8.63;3.55;;;;;;;14.65;60.68;102237.69;5222635;28;20079;-79
2021/10/09 12:40:47;;;;;;;7.70;3.42;;;;;;;14.60;58.36;102232.53;5217395;28;20037;-79
2021/10/09 12:43:20;;;;;;;6.90;3.10;;;;;;;14.74;60.06;102233.03;5215150;28;20025;-79
2021/10/09 12:45:50;;;;;;;9.48;2.83;;;;;;;14.69;59.73;102227.03;5216975;28;20068;-80
2021/10/09 12:48:21;;;;;;;6.28;3.13;;;;;;;14.65;58.76;102229.78;5219000;28;20072;-78
2021/10/09 12:50:51;;;;;;;5.93;3.08;;;;;;;14.74;59.83;102219.03;5217256;28;20045;-79
2021/10/09 12:53:21;;;;;;;5.88;3.28;;;;;;;14.70;60.34;102222.63;5218505;28;20045;-76
2021/10/09 12:55:51;;;;;;;6.23;3.00;;;;;;;14.79;58.00;102217.97;5217200;28;20117;-77
2021/10/09 12:58:22;;;;;;;6.80;2.70;;;;;;;14.89;59.88;102212.47;5223138;28;20268;-80
2021/10/09 13:00:52;;;;;;;8.70;3.03;;;;;;;14.94;57.91;102210.56;5226710;28;20064;-81
2021/10/09 13:03:22;;;;;;;6.87;2.47;;;;;;;14.93;59.46;102208.81;5228503;28;20078;-79
2021/10/09 13:05:53;;;;;;;6.73;3.10;;;;;;;14.93;58.39;102208.81;5226426;28;20290;-82
2021/10/09 13:08:23;;;;;;;6.53;2.70;;;;;;;14.82;58.86;102206.53;5221905;28;20287;-79
2021/10/09 13:10:55;;;;;;;6.82;2.70;;;;;;;14.86;58.93;102201.97;5221117;28;20291;-81
2021/10/09 13:13:25;;;;;;;5.85;2.80;;;;;;;14.82;59.59;102208.25;5222332;28;20037;-80
2021/10/09 13:15:55;;;;;;;6.00;3.03;;;;;;;14.83;59.88;102209.97;5224346;28;20488;-82
2021/10/09 13:18:25;;;;;;;8.40;3.05;;;;;;;14.87;60.43;102201.06;5224190;28;20029;-79
2021/10/09 13:20:56;;;;;;;7.00;3.00;;;;;;;14.81;58.66;102191.63;5221022;28;20049;-77
2021/10/09 13:23:31;;;;;;;8.80;2.80;;;;;;;14.90;59.51;102198.38;5217561;28;20290;-81
2021/10/09 13:26:02;;;;;;;9.15;3.22;;;;;;;14.82;58.60;102197.72;5220752;28;20735;-80
2021/10/09 13:28:32;;;;;;;7.32;2.90;;;;;;;14.90;58.87;102197.50;5226477;28;20029;-82
2021/10/09 13:31:04;;;;;;;7.35;3.10;;;;;;;14.90;58.12;102193.13;5210071;28;20024;-78
2021/10/09 13:33:34;;;;;;;6.93;2.47;;;;;;;14.96;58.20;102195.56;5229068;28;20028;-79
2021/10/09 13:36:06;;;;;;;5.20;2.58;;;;;;;14.96;58.66;102187.66;5230758;28;20074;-77
2021/10/09 13:38:39;;;;;;;6.90;2.60;;;;;;;14.99;59.69;102203.38;5222030;28;20408;-78
2021/10/09 13:41:11;;;;;;;5.13;2.30;;;;;;;15.10;58.68;102192.53;5220347;28;20051;-81
2021/10/09 13:43:41;;;;;;;5.57;2.30;;;;;;;15.01;59.04;102195.44;5201637;28;20619;-80
2021/10/09 13:46:13;;;;;;;5.75;2.40;;;;;;;15.08;59.20;102189.97;5199915;28;20064;-80
2021/10/09 13:48:44;;;;;;;4.93;2.35;;;;;;;15.08;58.83;102197.88;5226885;28;20040;-78
2021/10/09 13:51:14;;;;;;;3.80;2.17;;;;;;;15.08;58.46;102197.00;5230286;28;20064;-81
2021/10/09 13:53:44;;;;;;;5.50;2.40;;;;;;;14.97;58.32;102194.66;5226716;28;20045;-79